createdAt,value
2023-04-20T00:00:44.189Z,99.90
2023-04-20T00:03:12.613Z,99.90
2023-04-20T00:05:39.422Z,99.90
2023-04-20T00:08:06.204Z,99.90
2023-04-20T00:10:32.811Z,99.90
2023-04-20T00:12:59.409Z,99.90
2023-04-20T00:15:26.038Z,99.90
2023-04-20T00:17:53.556Z,99.90
2023-04-20T00:20:20.200Z,99.90
2023-04-20T00:22:46.799Z,99.90
2023-04-20T00:25:13.442Z,99.90
2023-04-20T00:27:40.200Z,99.90
2023-04-20T00:30:07.169Z,99.90
2023-04-20T00:32:33.751Z,99.90
2023-04-20T00:35:00.488Z,99.90
2023-04-20T00:37:27.194Z,99.90
2023-04-20T00:39:54.751Z,99.90
2023-04-20T00:42:21.314Z,99.90
2023-04-20T00:44:47.926Z,99.90
2023-04-20T00:47:14.462Z,99.90
2023-04-20T00:49:41.131Z,99.90
2023-04-20T00:52:08.252Z,99.90
2023-04-20T00:54:36.321Z,99.90
2023-04-20T00:57:04.236Z,99.90
2023-04-20T00:59:30.895Z,99.90
2023-04-20T01:01:57.710Z,99.90
2023-04-20T01:04:24.703Z,99.90
2023-04-20T01:06:51.338Z,99.90
2023-04-20T01:09:18.002Z,99.90
2023-04-20T01:11:44.785Z,99.90
2023-04-20T01:14:11.351Z,99.90
2023-04-20T01:16:38.001Z,99.90
2023-04-20T01:19:04.629Z,99.90
2023-04-20T01:21:32.077Z,99.90
2023-04-20T01:23:58.729Z,99.90
2023-04-20T01:26:25.910Z,99.90
2023-04-20T01:28:52.846Z,99.90
2023-04-20T01:31:19.809Z,99.90
2023-04-20T01:33:46.516Z,99.90
2023-04-20T01:36:13.280Z,99.90
2023-04-20T01:38:40.163Z,99.90
2023-04-20T01:41:07.843Z,99.90
2023-04-20T01:43:35.778Z,99.90
2023-04-20T01:46:02.834Z,99.90
2023-04-20T01:48:29.491Z,99.90
2023-04-20T01:50:56.151Z,99.90
2023-04-20T01:53:23.220Z,99.90
2023-04-20T01:55:50.136Z,99.90
2023-04-20T01:58:16.812Z,99.90
2023-04-20T02:00:44.065Z,99.90
2023-04-20T02:03:11.164Z,99.90
2023-04-20T02:05:37.903Z,99.90
2023-04-20T02:08:04.811Z,99.90
2023-04-20T02:10:31.441Z,99.90
2023-04-20T02:12:57.988Z,99.90
2023-04-20T02:15:24.601Z,99.90
2023-04-20T02:17:52.229Z,99.90
2023-04-20T02:20:19.857Z,99.90
2023-04-20T02:22:46.505Z,99.90
2023-04-20T02:25:13.514Z,99.90
2023-04-20T02:27:40.178Z,99.90
2023-04-20T02:30:08.814Z,99.90
2023-04-20T02:32:35.543Z,99.90
2023-04-20T02:35:03.916Z,99.90
2023-04-20T02:37:30.577Z,99.90
2023-04-20T02:39:57.183Z,99.90
2023-04-20T02:42:23.754Z,99.90
2023-04-20T02:44:50.396Z,99.90
2023-04-20T02:47:16.976Z,99.90
2023-04-20T02:49:43.741Z,99.90
2023-04-20T02:52:10.372Z,99.90
2023-04-20T02:54:36.931Z,99.90
2023-04-20T02:57:03.675Z,99.90
2023-04-20T02:59:30.307Z,99.90
2023-04-20T03:01:56.999Z,99.90
2023-04-20T03:04:23.762Z,99.90
2023-04-20T03:06:50.897Z,99.90
2023-04-20T03:09:18.484Z,99.90
2023-04-20T03:11:45.396Z,99.90
2023-04-20T03:14:11.975Z,99.90
2023-04-20T03:16:38.654Z,99.90
2023-04-20T03:19:05.327Z,99.90
2023-04-20T03:21:33.009Z,99.90
2023-04-20T03:24:00.166Z,99.90
2023-04-20T03:26:26.878Z,99.90
2023-04-20T03:28:53.475Z,99.90
2023-04-20T03:31:20.377Z,99.90
2023-04-20T03:33:46.998Z,99.90
2023-04-20T03:36:13.672Z,99.90
2023-04-20T03:38:40.365Z,99.90
2023-04-20T03:41:08.159Z,99.90
2023-04-20T03:43:35.190Z,99.90
2023-04-20T03:46:01.843Z,99.90
2023-04-20T03:48:28.447Z,99.90
2023-04-20T03:50:55.165Z,99.90
2023-04-20T03:53:21.869Z,99.90
2023-04-20T03:55:48.431Z,99.90
2023-04-20T03:58:15.595Z,99.90
2023-04-20T04:00:42.153Z,99.90
2023-04-20T04:03:09.059Z,99.90
2023-04-20T04:05:35.833Z,99.90
2023-04-20T04:08:02.502Z,99.90
2023-04-20T04:10:29.093Z,99.90
2023-04-20T04:12:55.946Z,99.90
2023-04-20T04:15:22.553Z,99.90
2023-04-20T04:17:49.252Z,99.90
2023-04-20T04:20:15.896Z,99.90
2023-04-20T04:22:42.700Z,99.90
2023-04-20T04:25:10.356Z,99.90
2023-04-20T04:27:37.637Z,99.90
2023-04-20T04:30:04.757Z,99.90
2023-04-20T04:32:31.368Z,99.90
2023-04-20T04:34:57.996Z,99.90
2023-04-20T04:37:24.814Z,99.90
2023-04-20T04:39:51.526Z,99.90
2023-04-20T04:42:18.157Z,99.90
2023-04-20T04:44:44.965Z,99.90
2023-04-20T04:47:14.280Z,99.90
2023-04-20T04:49:41.198Z,99.90
2023-04-20T04:52:08.359Z,99.90
2023-04-20T04:54:34.944Z,99.90
2023-04-20T04:57:01.603Z,99.90
2023-04-20T04:59:28.216Z,99.90
2023-04-20T05:01:54.858Z,99.90
2023-04-20T05:04:21.804Z,99.90
2023-04-20T05:06:48.488Z,99.90
2023-04-20T05:09:16.131Z,99.90
2023-04-20T05:11:43.009Z,99.90
2023-04-20T05:14:09.715Z,99.90
2023-04-20T05:16:36.423Z,99.90
2023-04-20T05:19:03.986Z,99.90
2023-04-20T05:21:30.908Z,99.90
2023-04-20T05:23:57.520Z,99.90
2023-04-20T05:26:24.233Z,99.90
2023-04-20T05:28:51.455Z,99.90
2023-04-20T05:31:18.107Z,99.90
2023-04-20T05:33:44.934Z,99.90
2023-04-20T05:36:11.712Z,99.90
2023-04-20T05:38:38.575Z,99.90
2023-04-20T05:41:05.395Z,99.90
2023-04-20T05:43:32.102Z,99.90
2023-04-20T05:45:58.895Z,99.90
2023-04-20T05:48:29.902Z,99.90
2023-04-20T05:50:57.037Z,99.90
2023-04-20T05:53:23.732Z,99.90
2023-04-20T05:55:50.356Z,99.90
2023-04-20T05:58:17.400Z,99.90
2023-04-20T06:00:44.456Z,99.90
2023-04-20T06:03:11.353Z,99.90
2023-04-20T06:05:38.326Z,99.90
2023-04-20T06:08:05.088Z,99.90
2023-04-20T06:10:34.183Z,99.90
2023-04-20T06:13:02.775Z,99.90
2023-04-20T06:15:29.385Z,99.90
2023-04-20T06:17:56.064Z,99.90
2023-04-20T06:20:22.925Z,99.90
2023-04-20T06:22:49.662Z,99.90
2023-04-20T06:25:16.375Z,99.90
2023-04-20T06:27:43.109Z,99.90
2023-04-20T06:30:10.317Z,99.90
2023-04-20T06:32:37.815Z,99.90
2023-04-20T06:35:04.996Z,99.90
2023-04-20T06:37:31.640Z,99.90
2023-04-20T06:39:58.363Z,99.90
2023-04-20T06:42:25.005Z,99.90
2023-04-20T06:44:51.636Z,99.90
2023-04-20T06:47:18.230Z,99.90
2023-04-20T06:49:44.923Z,99.90
2023-04-20T06:52:11.539Z,99.90
2023-04-20T06:54:38.187Z,99.90
2023-04-20T06:57:05.179Z,99.90
2023-04-20T06:59:31.772Z,99.90
2023-04-20T07:01:58.542Z,99.90
2023-04-20T07:04:25.305Z,99.90
2023-04-20T07:06:53.977Z,99.90
2023-04-20T07:09:23.000Z,99.90
2023-04-20T07:11:49.668Z,99.90
2023-04-20T07:14:16.470Z,99.90
2023-04-20T07:16:43.149Z,99.90
2023-04-20T07:19:09.799Z,99.90
2023-04-20T07:21:36.533Z,99.90
2023-04-20T07:24:03.222Z,99.90
2023-04-20T07:26:29.863Z,99.90
2023-04-20T07:28:56.498Z,99.90
2023-04-20T07:31:23.308Z,99.90
2023-04-20T07:33:49.915Z,99.90
2023-04-20T07:36:16.528Z,99.90
2023-04-20T07:38:43.352Z,99.90
2023-04-20T07:41:11.423Z,99.90
2023-04-20T07:43:38.874Z,99.90
2023-04-20T07:46:05.823Z,99.90
2023-04-20T07:48:33.704Z,99.90
2023-04-20T07:51:00.558Z,99.90
2023-04-20T07:53:27.599Z,99.90
2023-04-20T07:55:54.243Z,99.90
2023-04-20T07:58:21.615Z,99.90
2023-04-20T08:00:48.437Z,99.90
2023-04-20T08:03:15.231Z,99.90
2023-04-20T08:05:42.124Z,99.90
2023-04-20T08:08:08.835Z,99.90
2023-04-20T08:10:35.472Z,99.90
2023-04-20T08:13:02.132Z,99.90
2023-04-20T08:15:28.817Z,99.90
2023-04-20T08:17:55.655Z,99.90
2023-04-20T08:20:22.340Z,99.90
2023-04-20T08:22:49.325Z,99.90
2023-04-20T08:25:16.035Z,99.90
2023-04-20T08:27:42.647Z,99.90
2023-04-20T08:30:09.355Z,99.90
2023-04-20T08:32:36.262Z,99.90
2023-04-20T08:35:04.215Z,99.90
2023-04-20T08:37:32.713Z,99.90
2023-04-20T08:39:59.761Z,99.90
2023-04-20T08:42:26.405Z,99.90
2023-04-20T08:44:53.378Z,99.90
2023-04-20T08:47:21.202Z,99.90
2023-04-20T08:49:49.672Z,99.90
2023-04-20T08:52:18.344Z,99.90
2023-04-20T08:57:14.627Z,99.90
2023-04-20T08:59:41.237Z,99.90
2023-04-20T09:02:09.043Z,99.90
2023-04-20T09:04:36.171Z,99.90
2023-04-20T09:07:02.910Z,99.90
2023-04-20T09:09:29.520Z,99.90
2023-04-20T09:12:06.934Z,99.90
2023-04-20T09:14:44.021Z,99.90
2023-04-20T09:17:14.175Z,99.90
2023-04-20T09:19:41.171Z,99.90
2023-04-20T09:22:07.857Z,99.90
2023-04-20T09:24:35.221Z,99.90
2023-04-20T09:27:02.864Z,99.90
2023-04-20T09:29:30.242Z,99.90
2023-04-20T09:31:56.993Z,99.90
2023-04-20T09:34:23.874Z,99.90
2023-04-20T09:36:54.092Z,99.90
2023-04-20T09:39:21.538Z,99.90
2023-04-20T09:41:48.789Z,99.90
2023-04-20T09:44:16.591Z,99.90
2023-04-20T09:46:43.767Z,99.90
2023-04-20T09:49:11.634Z,99.90
2023-04-20T09:51:41.540Z,99.90
2023-04-20T09:54:08.638Z,99.90
2023-04-20T09:56:35.916Z,99.90
2023-04-20T09:59:03.860Z,99.90
2023-04-20T10:01:31.693Z,99.90
2023-04-20T10:03:59.361Z,99.90
2023-04-20T10:06:27.710Z,99.90
2023-04-20T10:08:54.594Z,99.90
2023-04-20T10:11:31.697Z,99.90
2023-04-20T10:14:18.062Z,99.90
2023-04-20T10:16:45.381Z,99.90
2023-04-20T10:19:12.413Z,99.90
2023-04-20T10:21:46.663Z,99.90
2023-04-20T10:24:13.877Z,99.90
2023-04-20T10:26:45.008Z,99.90
2023-04-20T10:29:12.609Z,99.90
2023-04-20T10:31:40.458Z,99.90
2023-04-20T10:34:07.515Z,99.90
2023-04-20T10:36:37.907Z,99.90
2023-04-20T10:39:17.321Z,99.90
2023-04-20T10:41:52.040Z,99.90
2023-04-20T10:44:18.779Z,99.90
2023-04-20T10:46:48.429Z,99.90
2023-04-20T10:49:15.570Z,99.50
2023-04-20T10:51:51.937Z,99.30
2023-04-20T10:54:19.137Z,98.40
2023-04-20T10:56:45.727Z,99.00
2023-04-20T10:59:16.747Z,97.30
2023-04-20T11:01:44.423Z,94.20
2023-04-20T11:04:11.766Z,95.20
2023-04-20T11:06:42.679Z,95.60
2023-04-20T11:09:23.655Z,94.90
2023-04-20T11:12:03.871Z,95.20
2023-04-20T11:14:31.415Z,95.60
2023-04-20T11:16:58.163Z,97.00
2023-04-20T11:19:25.974Z,96.90
2023-04-20T11:21:52.750Z,97.20
2023-04-20T11:24:20.304Z,98.10
2023-04-20T11:26:49.932Z,97.80
2023-04-20T11:29:29.862Z,98.60
2023-04-20T11:31:58.010Z,97.90
2023-04-20T11:34:24.770Z,98.30
2023-04-20T11:36:51.569Z,97.70
2023-04-20T11:39:24.663Z,97.30
2023-04-20T11:41:52.376Z,97.40
2023-04-20T11:44:22.570Z,98.00
2023-04-20T11:46:50.262Z,97.60
2023-04-20T11:49:17.276Z,98.20
2023-04-20T11:51:44.691Z,98.70
2023-04-20T11:54:11.761Z,98.70
2023-04-20T11:56:38.706Z,98.70
2023-04-20T11:59:05.435Z,98.80
2023-04-20T12:01:33.152Z,98.90
2023-04-20T12:04:01.941Z,98.60
2023-04-20T12:06:29.012Z,99.30
2023-04-20T12:08:56.240Z,99.20
2023-04-20T12:11:22.926Z,99.60
2023-04-20T12:13:49.531Z,99.80
2023-04-20T12:16:16.234Z,99.50
2023-04-20T12:18:42.910Z,99.80
2023-04-20T12:21:09.563Z,97.40
2023-04-20T12:23:39.192Z,97.30
2023-04-20T12:26:06.586Z,95.90
2023-04-20T12:28:33.305Z,95.10
2023-04-20T12:31:00.330Z,95.10
2023-04-20T12:33:26.967Z,94.90
2023-04-20T12:35:53.542Z,95.30
2023-04-20T12:38:20.196Z,94.20
2023-04-20T12:40:46.835Z,92.30
2023-04-20T12:43:13.445Z,90.90
2023-04-20T12:45:40.431Z,89.60
2023-04-20T12:48:07.133Z,84.80
2023-04-20T12:50:33.755Z,85.10
2023-04-20T12:53:00.453Z,84.00
2023-04-20T12:55:27.103Z,84.50
2023-04-20T12:57:53.703Z,86.10
2023-04-20T13:00:20.273Z,87.80
2023-04-20T13:02:47.091Z,88.70
2023-04-20T13:05:13.850Z,85.00
2023-04-20T13:07:40.448Z,86.10
2023-04-20T13:10:07.345Z,89.80
2023-04-20T13:12:33.944Z,89.60
2023-04-20T13:15:00.617Z,90.70
2023-04-20T13:17:27.291Z,90.90
2023-04-20T13:19:54.042Z,91.80
2023-04-20T13:22:20.803Z,90.60
2023-04-20T13:24:47.391Z,90.80
2023-04-20T13:27:14.329Z,91.70
2023-04-20T13:29:41.387Z,92.00
2023-04-20T13:32:08.107Z,91.80
2023-04-20T13:34:34.842Z,92.30
2023-04-20T13:37:01.492Z,92.50
2023-04-20T13:39:28.099Z,93.30
2023-04-20T13:41:54.778Z,93.20
2023-04-20T13:44:21.550Z,93.00
2023-04-20T13:46:48.434Z,92.60
2023-04-20T13:49:16.775Z,92.50
2023-04-20T13:51:43.389Z,92.10
2023-04-20T13:54:09.953Z,92.50
2023-04-20T13:56:39.283Z,92.50
2023-04-20T13:59:05.931Z,93.00
2023-04-20T14:01:32.706Z,92.30
2023-04-20T14:03:59.569Z,92.20
2023-04-20T14:06:27.520Z,92.50
2023-04-20T14:08:54.462Z,92.50
2023-04-20T14:11:21.095Z,92.20
2023-04-20T14:13:47.852Z,92.50
2023-04-20T14:16:14.853Z,91.80
2023-04-20T14:18:41.697Z,90.40
2023-04-20T14:21:08.344Z,89.60
2023-04-20T14:23:35.048Z,89.10
2023-04-20T14:26:03.818Z,88.30
2023-04-20T14:28:31.842Z,90.20
2023-04-20T14:31:00.897Z,88.60
2023-04-20T14:33:28.158Z,89.30
2023-04-20T14:35:54.804Z,89.00
2023-04-20T14:38:21.422Z,89.50
2023-04-20T14:40:48.490Z,90.00
2023-04-20T14:43:15.438Z,90.10
2023-04-20T14:45:44.628Z,90.70
2023-04-20T14:48:11.494Z,90.40
2023-04-20T14:50:38.348Z,91.10
2023-04-20T14:53:05.052Z,91.70
2023-04-20T14:55:31.729Z,91.60
2023-04-20T14:57:58.388Z,91.40
2023-04-20T15:00:25.756Z,91.20
2023-04-20T15:02:52.980Z,90.70
2023-04-20T15:05:20.156Z,90.80
2023-04-20T15:07:50.569Z,91.40
2023-04-20T15:10:18.494Z,91.40
2023-04-20T15:12:45.884Z,91.70
2023-04-20T15:15:12.488Z,91.90
2023-04-20T15:17:39.090Z,91.70
2023-04-20T15:20:06.335Z,91.70
2023-04-20T15:22:32.963Z,92.20
2023-04-20T15:24:59.631Z,92.70
2023-04-20T15:27:26.287Z,93.50
2023-04-20T15:29:52.925Z,93.70
2023-04-20T15:32:19.620Z,93.80
2023-04-20T15:34:46.274Z,93.80
2023-04-20T15:37:12.932Z,93.70
2023-04-20T15:39:39.561Z,94.10
2023-04-20T15:42:06.194Z,94.30
2023-04-20T15:44:32.839Z,94.30
2023-04-20T15:46:59.527Z,93.70
2023-04-20T15:49:26.189Z,94.00
2023-04-20T15:51:53.061Z,94.10
2023-04-20T15:54:23.500Z,94.10
2023-04-20T15:56:51.061Z,93.80
2023-04-20T15:59:18.329Z,93.80
2023-04-20T16:01:45.148Z,93.90
2023-04-20T16:04:12.131Z,93.30
2023-04-20T16:06:39.973Z,93.20
2023-04-20T16:09:07.033Z,93.60
2023-04-20T16:11:34.885Z,93.40
2023-04-20T16:14:01.799Z,93.50
2023-04-20T16:16:28.533Z,93.90
2023-04-20T16:18:55.311Z,93.50
2023-04-20T16:21:23.307Z,93.80
2023-04-20T16:23:53.425Z,93.50
2023-04-20T16:26:20.885Z,93.90
2023-04-20T16:28:47.534Z,93.50
2023-04-20T16:31:14.233Z,93.80
2023-04-20T16:33:41.366Z,93.90
2023-04-20T16:36:08.335Z,94.00
2023-04-20T16:38:34.973Z,93.40
2023-04-20T16:41:01.561Z,93.10
2023-04-20T16:43:28.200Z,93.20
2023-04-20T16:45:54.978Z,93.20
2023-04-20T16:48:21.782Z,93.20
2023-04-20T16:50:48.488Z,93.20
2023-04-20T16:53:15.164Z,93.70
2023-04-20T16:55:41.821Z,93.40
2023-04-20T16:58:08.435Z,93.30
2023-04-20T17:00:35.459Z,93.20
2023-04-20T17:03:03.612Z,93.10
2023-04-20T17:05:30.449Z,93.10
2023-04-20T17:07:57.049Z,93.10
2023-04-20T17:10:23.712Z,93.00
2023-04-20T17:12:50.726Z,93.40
2023-04-20T17:15:17.315Z,93.40
2023-04-20T17:17:43.958Z,93.20
2023-04-20T17:20:10.761Z,93.50
2023-04-20T17:22:37.383Z,93.60
2023-04-20T17:25:06.466Z,93.60
2023-04-20T17:27:34.091Z,93.50
2023-04-20T17:30:00.772Z,93.90
2023-04-20T17:32:28.250Z,93.70
2023-04-20T17:34:54.848Z,93.70
2023-04-20T17:37:22.308Z,94.10
2023-04-20T17:39:48.946Z,94.00
2023-04-20T17:42:15.571Z,94.00
2023-04-20T17:44:42.214Z,94.30
2023-04-20T17:47:09.526Z,94.30
2023-04-20T17:49:36.610Z,94.60
2023-04-20T17:52:03.413Z,94.60
2023-04-20T17:54:30.050Z,94.70
2023-04-20T17:56:57.995Z,94.80
2023-04-20T17:59:24.650Z,95.00
2023-04-20T18:01:51.436Z,95.50
2023-04-20T18:04:18.673Z,95.30
2023-04-20T18:06:45.569Z,95.10
2023-04-20T18:09:14.060Z,95.00
2023-04-20T18:11:40.930Z,94.90
2023-04-20T18:14:07.561Z,95.20
2023-04-20T18:16:34.231Z,95.10
2023-04-20T18:19:00.846Z,95.40
2023-04-20T18:21:29.510Z,95.50
2023-04-20T18:23:56.097Z,95.50
2023-04-20T18:26:23.624Z,95.70
2023-04-20T18:28:50.360Z,95.80
2023-04-20T18:31:17.009Z,96.10
2023-04-20T18:33:43.626Z,96.10
2023-04-20T18:36:10.238Z,96.10
2023-04-20T18:38:36.870Z,96.20
2023-04-20T18:41:03.459Z,96.10
2023-04-20T18:43:30.046Z,96.30
2023-04-20T18:45:56.667Z,96.20
2023-04-20T18:48:23.263Z,96.50
2023-04-20T18:50:49.829Z,96.60
2023-04-20T18:53:16.670Z,96.60
2023-04-20T18:55:43.526Z,96.80
2023-04-20T18:58:10.103Z,96.70
2023-04-20T19:00:36.737Z,96.80
2023-04-20T19:03:04.319Z,96.90
2023-04-20T19:05:31.579Z,96.80
2023-04-20T19:07:58.110Z,96.90
2023-04-20T19:10:25.975Z,97.00
2023-04-20T19:12:52.593Z,97.10
2023-04-20T19:15:25.360Z,97.00
2023-04-20T19:17:53.006Z,97.10
2023-04-20T19:20:19.703Z,97.10
2023-04-20T19:22:46.301Z,97.40
2023-04-20T19:25:12.917Z,97.20
2023-04-20T19:27:39.604Z,97.20
2023-04-20T19:30:07.126Z,97.20
2023-04-20T19:32:34.015Z,97.40
2023-04-20T19:35:00.817Z,97.50
2023-04-20T19:37:27.489Z,97.60
2023-04-20T19:39:54.329Z,97.50
2023-04-20T19:42:22.792Z,97.60
2023-04-20T19:44:49.451Z,97.60
2023-04-20T19:47:16.085Z,97.80
2023-04-20T19:49:42.675Z,97.60
2023-04-20T19:52:09.294Z,97.80
2023-04-20T19:54:35.982Z,97.90
2023-04-20T19:57:02.603Z,97.90
2023-04-20T19:59:30.299Z,97.90
2023-04-20T20:01:56.950Z,97.90
2023-04-20T20:04:23.903Z,97.90
2023-04-20T20:06:51.102Z,98.10
2023-04-20T20:09:18.471Z,98.20
2023-04-20T20:11:50.148Z,98.30
2023-04-20T20:14:17.165Z,98.20
2023-04-20T20:16:43.841Z,98.10
2023-04-20T20:19:10.520Z,98.30
2023-04-20T20:21:37.225Z,98.40
2023-04-20T20:24:03.970Z,98.50
2023-04-20T20:26:30.607Z,98.60
2023-04-20T20:28:57.192Z,98.70
2023-04-20T20:31:23.838Z,98.80
2023-04-20T20:33:50.504Z,98.60
2023-04-20T20:36:17.771Z,98.60
2023-04-20T20:38:44.462Z,98.40
2023-04-20T20:41:13.530Z,98.50
2023-04-20T20:43:43.401Z,98.60
2023-04-20T20:46:10.121Z,98.60
2023-04-20T20:48:36.786Z,98.70
2023-04-20T20:51:03.479Z,98.70
2023-04-20T20:53:30.059Z,98.70
2023-04-20T20:55:56.612Z,98.90
2023-04-20T20:58:23.219Z,98.90
2023-04-20T21:00:49.869Z,99.10
2023-04-20T21:03:16.630Z,99.10
2023-04-20T21:05:43.440Z,99.10
2023-04-20T21:08:10.055Z,99.00
2023-04-20T21:10:36.682Z,99.00
2023-04-20T21:13:04.238Z,99.00
2023-04-20T21:15:30.952Z,99.00
2023-04-20T21:17:57.583Z,99.00
2023-04-20T21:20:24.290Z,99.10
2023-04-20T21:22:50.967Z,99.10
2023-04-20T21:25:17.624Z,99.00
2023-04-20T21:27:44.298Z,99.00
2023-04-20T21:30:11.222Z,99.10
2023-04-20T21:32:37.989Z,99.10
2023-04-20T21:35:04.823Z,99.10
2023-04-20T21:37:31.549Z,99.00
2023-04-20T21:39:58.174Z,98.90
2023-04-20T21:42:24.850Z,98.90
2023-04-20T21:44:51.490Z,98.90
2023-04-20T21:47:18.241Z,99.00
2023-04-20T21:49:44.963Z,98.90
2023-04-20T21:52:11.668Z,99.00
2023-04-20T21:54:40.079Z,99.10
2023-04-20T21:57:07.074Z,99.10
2023-04-20T21:59:33.688Z,99.10
2023-04-20T22:02:00.429Z,99.10
2023-04-20T22:04:27.426Z,99.10
2023-04-20T22:06:55.467Z,99.10
2023-04-20T22:09:22.749Z,99.20
2023-04-20T22:11:49.967Z,99.30
2023-04-20T22:14:17.146Z,99.10
2023-04-20T22:16:43.824Z,99.10
2023-04-20T22:19:10.442Z,99.10
2023-04-20T22:21:37.117Z,99.10
2023-04-20T22:24:04.033Z,99.20
2023-04-20T22:26:30.668Z,99.00
2023-04-20T22:28:57.292Z,99.10
2023-04-20T22:31:24.064Z,99.10
2023-04-20T22:33:50.717Z,99.10
2023-04-20T22:36:17.436Z,99.10
2023-04-20T22:38:44.251Z,99.00
2023-04-20T22:41:10.950Z,98.90
2023-04-20T22:43:37.586Z,98.90
2023-04-20T22:46:04.284Z,99.00
2023-04-20T22:48:30.930Z,99.10
2023-04-20T22:51:00.593Z,99.10
2023-04-20T22:53:29.745Z,99.20
2023-04-20T22:56:03.013Z,99.30
2023-04-20T22:58:29.747Z,99.30
2023-04-20T23:00:56.356Z,99.20
2023-04-20T23:03:23.274Z,99.30
2023-04-20T23:05:50.050Z,99.30
2023-04-20T23:08:17.532Z,99.40
2023-04-20T23:10:45.382Z,99.30
2023-04-20T23:13:17.040Z,99.20
2023-04-20T23:15:43.606Z,99.30
2023-04-20T23:18:10.548Z,99.40
2023-04-20T23:20:37.712Z,99.40
2023-04-20T23:23:04.833Z,99.50
2023-04-20T23:25:31.496Z,99.50
2023-04-20T23:27:58.079Z,99.50
2023-04-20T23:30:24.660Z,99.50
2023-04-20T23:32:51.413Z,99.50
2023-04-20T23:35:18.944Z,99.60
2023-04-20T23:37:45.631Z,99.70
2023-04-20T23:40:12.876Z,99.60
2023-04-20T23:42:39.543Z,99.70
2023-04-20T23:45:06.613Z,99.80
2023-04-20T23:47:33.363Z,99.80
2023-04-20T23:50:00.175Z,99.90
2023-04-20T23:52:26.733Z,99.80
2023-04-20T23:54:53.347Z,99.80
2023-04-20T23:57:19.949Z,99.90
2023-04-20T23:59:46.532Z,99.90
